createdAt,value
2019-02-17T00:00:58.336Z,101850.91
2019-02-17T00:03:05.441Z,101852.19
2019-02-17T00:05:12.582Z,101847.48
2019-02-17T00:07:19.772Z,101842.25
2019-02-17T00:09:26.809Z,101843.12
2019-02-17T00:11:34.173Z,101845.25
2019-02-17T00:13:41.346Z,101848.20
2019-02-17T00:15:48.111Z,101847.31
2019-02-17T00:17:55.172Z,101842.92
2019-02-17T00:20:02.969Z,101843.84
2019-02-17T00:22:10.728Z,101841.67
2019-02-17T00:24:17.865Z,101843.84
2019-02-17T00:26:24.807Z,101844.31
2019-02-17T00:28:31.700Z,101844.83
2019-02-17T00:30:38.871Z,101855.67
2019-02-17T00:32:45.677Z,101847.48
2019-02-17T00:34:52.764Z,101852.77
2019-02-17T00:36:59.771Z,101847.53
2019-02-17T00:39:08.383Z,101849.61
2019-02-17T00:41:15.541Z,101846.86
2019-02-17T00:43:22.632Z,101854.94
2019-02-17T00:45:29.587Z,101848.80
2019-02-17T00:47:36.654Z,101846.11
2019-02-17T00:49:43.519Z,101849.02
2019-02-17T00:51:50.586Z,101851.95
2019-02-17T00:53:57.804Z,101844.06
2019-02-17T00:56:04.866Z,101846.13
2019-02-17T00:58:11.974Z,101846.08
2019-02-17T01:00:19.074Z,101846.89
2019-02-17T01:02:29.682Z,101848.61
2019-02-17T01:04:37.554Z,101838.19
2019-02-17T01:06:44.615Z,101842.53
2019-02-17T01:08:51.542Z,101853.73
2019-02-17T01:10:59.364Z,101839.13
2019-02-17T01:13:06.501Z,101844.38
2019-02-17T01:15:14.511Z,101843.08
2019-02-17T01:17:21.000Z,101840.94
2019-02-17T01:19:28.376Z,101846.13
2019-02-17T01:21:35.651Z,101852.20
2019-02-17T01:23:43.099Z,101858.25
2019-02-17T01:25:50.002Z,101850.00
2019-02-17T01:27:56.690Z,101852.50
2019-02-17T01:30:03.473Z,101855.49
2019-02-17T01:32:10.426Z,101857.63
2019-02-17T01:34:18.089Z,101854.14
2019-02-17T01:36:25.433Z,101858.44
2019-02-17T01:38:32.074Z,101854.91
2019-02-17T01:40:38.844Z,101857.42
2019-02-17T01:42:45.719Z,101848.73
2019-02-17T01:44:53.149Z,101853.02
2019-02-17T01:47:00.377Z,101845.13
2019-02-17T01:49:07.276Z,101846.77
2019-02-17T01:51:14.039Z,101843.59
2019-02-17T01:53:20.941Z,101843.04
2019-02-17T01:55:28.043Z,101842.03
2019-02-17T01:57:35.080Z,101839.38
2019-02-17T01:59:41.867Z,101838.50
2019-02-17T02:01:50.322Z,101838.50
2019-02-17T02:03:57.335Z,101834.16
2019-02-17T02:06:06.868Z,101834.63
2019-02-17T02:08:15.139Z,101836.50
2019-02-17T02:10:22.348Z,101833.47
2019-02-17T02:12:29.507Z,101847.29
2019-02-17T02:14:36.751Z,101833.93
2019-02-17T02:16:44.416Z,101840.40
2019-02-17T02:18:52.264Z,101840.73
2019-02-17T02:20:59.495Z,101838.45
2019-02-17T02:23:06.318Z,101843.08
2019-02-17T02:25:13.869Z,101827.84
2019-02-17T02:27:21.641Z,101825.12
2019-02-17T02:29:40.413Z,101822.47
2019-02-17T02:31:39.014Z,101827.11
2019-02-17T02:33:46.057Z,101826.63
2019-02-17T02:35:52.789Z,101825.39
2019-02-17T02:38:00.335Z,101819.28
2019-02-17T02:40:08.714Z,101826.20
2019-02-17T02:42:15.547Z,101829.22
2019-02-17T02:44:22.508Z,101828.85
2019-02-17T02:46:29.941Z,101830.16
2019-02-17T02:48:37.052Z,101843.56
2019-02-17T02:50:43.866Z,101838.34
2019-02-17T02:52:50.756Z,101843.91
2019-02-17T02:54:57.686Z,101838.25
2019-02-17T02:57:04.576Z,101841.13
2019-02-17T02:59:12.784Z,101849.28
2019-02-17T03:01:20.169Z,101855.83
2019-02-17T03:03:27.544Z,101855.34
2019-02-17T03:05:34.897Z,101857.92
2019-02-17T03:07:42.114Z,101859.56
2019-02-17T03:09:49.485Z,101862.51
2019-02-17T03:11:56.443Z,101870.27
2019-02-17T03:14:03.290Z,101872.52
2019-02-17T03:16:10.346Z,101872.98
2019-02-17T03:18:17.082Z,101867.80
2019-02-17T03:20:24.605Z,101865.17
2019-02-17T03:22:31.417Z,101868.98
2019-02-17T03:24:38.229Z,101862.02
2019-02-17T03:26:45.669Z,101860.17
2019-02-17T03:28:52.587Z,101872.15
2019-02-17T03:30:59.682Z,101865.13
2019-02-17T03:33:06.641Z,101872.80
2019-02-17T03:35:13.471Z,101883.08
2019-02-17T03:37:20.479Z,101873.09
2019-02-17T03:39:27.605Z,101882.61
2019-02-17T03:41:35.337Z,101878.75
2019-02-17T03:43:48.187Z,101879.27
2019-02-17T03:46:00.727Z,101881.00
2019-02-17T03:48:07.493Z,101883.64
2019-02-17T03:50:14.795Z,101880.72
2019-02-17T03:52:22.756Z,101885.49
2019-02-17T03:54:30.104Z,101888.08
2019-02-17T03:56:38.484Z,101891.48
2019-02-17T03:58:45.840Z,101894.55
2019-02-17T04:00:53.381Z,101885.98
2019-02-17T04:03:00.957Z,101888.28
2019-02-17T04:05:08.768Z,101888.84
2019-02-17T04:07:16.272Z,101891.03
2019-02-17T04:09:25.102Z,101900.53
2019-02-17T04:11:32.109Z,101903.05
2019-02-17T04:13:40.277Z,101897.69
2019-02-17T04:15:47.773Z,101900.03
2019-02-17T04:17:55.214Z,101894.52
2019-02-17T04:20:04.028Z,101896.80
2019-02-17T04:22:11.224Z,101894.30
2019-02-17T04:24:18.844Z,101900.95
2019-02-17T04:26:26.470Z,101899.09
2019-02-17T04:28:33.792Z,101902.50
2019-02-17T04:30:40.855Z,101897.86
2019-02-17T04:32:48.313Z,101906.09
2019-02-17T04:34:55.332Z,101896.64
2019-02-17T04:37:02.526Z,101902.22
2019-02-17T04:39:10.007Z,101893.51
2019-02-17T04:41:17.048Z,101890.38
2019-02-17T04:43:24.449Z,101898.92
2019-02-17T04:45:31.787Z,101893.67
2019-02-17T04:47:39.538Z,101892.33
2019-02-17T04:49:47.098Z,101898.34
2019-02-17T04:51:54.253Z,101897.08
2019-02-17T04:54:01.403Z,101900.69
2019-02-17T04:56:08.648Z,101897.41
2019-02-17T04:58:15.567Z,101899.33
2019-02-17T05:00:22.655Z,101905.05
2019-02-17T05:02:50.217Z,101909.01
2019-02-17T05:04:57.182Z,101902.19
2019-02-17T05:07:04.515Z,101907.39
2019-02-17T05:09:11.608Z,101907.55
2019-02-17T05:11:18.474Z,101913.19
2019-02-17T05:13:25.819Z,101913.20
2019-02-17T05:15:33.212Z,101918.84
2019-02-17T05:17:40.118Z,101915.84
2019-02-17T05:19:46.976Z,101923.27
2019-02-17T05:21:54.124Z,101927.17
2019-02-17T05:24:00.956Z,101927.28
2019-02-17T05:26:07.839Z,101931.83
2019-02-17T05:28:15.168Z,101936.48
2019-02-17T05:30:21.974Z,101935.55
2019-02-17T05:32:28.823Z,101929.43
2019-02-17T05:34:36.806Z,101940.12
2019-02-17T05:36:43.833Z,101939.51
2019-02-17T05:38:51.185Z,101930.73
2019-02-17T05:40:58.208Z,101940.88
2019-02-17T05:43:05.094Z,101939.84
2019-02-17T05:45:11.950Z,101937.97
2019-02-17T05:47:18.739Z,101935.20
2019-02-17T05:49:26.514Z,101936.22
2019-02-17T05:51:34.028Z,101938.58
2019-02-17T05:53:41.315Z,101941.77
2019-02-17T05:55:48.724Z,101944.94
2019-02-17T05:57:55.562Z,101944.58
2019-02-17T06:00:02.598Z,101944.64
2019-02-17T06:02:09.688Z,101947.24
2019-02-17T06:04:16.881Z,101951.59
2019-02-17T06:06:24.663Z,101958.55
2019-02-17T06:08:31.592Z,101962.96
2019-02-17T06:10:38.987Z,101962.66
2019-02-17T06:12:45.893Z,101958.83
2019-02-17T06:14:53.163Z,101960.66
2019-02-17T06:17:00.573Z,101959.00
2019-02-17T06:19:07.644Z,101953.03
2019-02-17T06:21:14.763Z,101954.45
2019-02-17T06:23:22.091Z,101958.85
2019-02-17T06:25:29.039Z,101963.50
2019-02-17T06:27:36.163Z,101964.76
2019-02-17T06:29:43.216Z,101966.34
2019-02-17T06:31:50.169Z,101969.29
2019-02-17T06:33:57.288Z,101961.20
2019-02-17T06:36:04.592Z,101969.77
2019-02-17T06:38:11.358Z,101975.97
2019-02-17T06:40:18.940Z,101983.89
2019-02-17T06:42:25.930Z,101987.61
2019-02-17T06:44:32.845Z,101995.13
2019-02-17T06:46:41.161Z,101978.77
2019-02-17T06:48:48.171Z,101984.93
2019-02-17T06:50:55.194Z,101989.30
2019-02-17T06:53:02.324Z,101978.77
2019-02-17T06:55:14.780Z,101988.17
2019-02-17T06:57:23.296Z,101999.03
2019-02-17T06:59:30.688Z,101990.56
2019-02-17T07:01:37.865Z,101998.44
2019-02-17T07:03:45.242Z,101994.48
2019-02-17T07:05:54.166Z,101992.68
2019-02-17T07:08:01.466Z,102002.60
2019-02-17T07:10:08.545Z,102013.05
2019-02-17T07:12:15.621Z,102011.80
2019-02-17T07:14:23.086Z,102006.19
2019-02-17T07:16:29.908Z,102012.72
2019-02-17T07:18:37.237Z,102011.00
2019-02-17T07:20:44.345Z,102009.47
2019-02-17T07:22:52.006Z,102013.78
2019-02-17T07:24:59.216Z,102014.12
2019-02-17T07:27:06.097Z,102013.36
2019-02-17T07:29:13.279Z,102013.86
2019-02-17T07:31:22.422Z,102014.84
2019-02-17T07:33:28.930Z,102020.13
2019-02-17T07:35:37.208Z,102021.62
2019-02-17T07:37:44.557Z,102017.02
2019-02-17T07:39:51.753Z,102012.27
2019-02-17T07:41:58.504Z,102017.05
2019-02-17T07:44:05.335Z,102018.39
2019-02-17T07:46:13.034Z,102011.20
2019-02-17T07:48:20.566Z,102011.03
2019-02-17T07:50:27.445Z,102015.59
2019-02-17T07:52:34.528Z,102021.41
2019-02-17T07:54:43.541Z,102022.41
2019-02-17T07:56:50.565Z,102013.36
2019-02-17T07:58:57.606Z,102017.48
2019-02-17T08:01:07.202Z,102017.06
2019-02-17T08:03:15.797Z,102018.34
2019-02-17T08:05:22.663Z,102016.53
2019-02-17T08:07:29.721Z,102018.22
2019-02-17T08:09:37.109Z,102012.14
2019-02-17T08:11:48.286Z,102018.17
2019-02-17T08:13:57.186Z,102018.12
2019-02-17T08:16:04.561Z,102024.69
2019-02-17T08:18:11.617Z,102018.29
2019-02-17T08:20:18.818Z,102018.37
2019-02-17T08:22:25.633Z,102019.70
2019-02-17T08:24:32.464Z,102011.05
2019-02-17T08:26:39.947Z,102018.02
2019-02-17T08:28:48.309Z,102020.25
2019-02-17T08:30:55.191Z,102018.47
2019-02-17T08:33:04.116Z,102023.73
2019-02-17T08:35:12.276Z,102018.94
2019-02-17T08:37:19.068Z,102020.72
2019-02-17T08:39:25.939Z,102021.66
2019-02-17T08:41:33.700Z,102019.04
2019-02-17T08:43:41.848Z,102016.03
2019-02-17T08:45:48.816Z,102022.09
2019-02-17T08:47:56.076Z,102025.20
2019-02-17T08:50:05.740Z,102026.52
2019-02-17T08:52:12.623Z,102025.22
2019-02-17T08:54:19.543Z,102027.05
2019-02-17T08:56:26.564Z,102022.73
2019-02-17T08:58:33.742Z,102025.78
2019-02-17T09:00:41.704Z,102029.72
2019-02-17T09:02:48.818Z,102028.03
2019-02-17T09:04:55.815Z,102028.50
2019-02-17T09:07:02.985Z,102028.53
2019-02-17T09:09:10.778Z,102029.41
2019-02-17T09:11:18.179Z,102035.50
2019-02-17T09:13:25.481Z,102035.50
2019-02-17T09:15:32.340Z,102029.44
2019-02-17T09:17:39.571Z,102022.48
2019-02-17T09:19:46.522Z,102024.25
2019-02-17T09:21:53.713Z,102027.23
2019-02-17T09:24:01.069Z,102021.52
2019-02-17T09:26:08.504Z,102036.23
2019-02-17T09:28:15.734Z,102031.42
2019-02-17T09:30:22.922Z,102030.17
2019-02-17T09:32:30.139Z,102032.82
2019-02-17T09:34:37.100Z,102027.20
2019-02-17T09:36:44.372Z,102028.14
2019-02-17T09:38:51.542Z,102034.72
2019-02-17T09:40:58.430Z,102027.84
2019-02-17T09:43:06.405Z,102024.83
2019-02-17T09:45:17.926Z,102027.50
2019-02-17T09:47:24.800Z,102031.03
2019-02-17T09:49:32.247Z,102036.29
2019-02-17T09:51:40.593Z,102035.46
2019-02-17T09:53:47.719Z,102036.35
2019-02-17T09:55:55.198Z,102039.02
2019-02-17T09:58:02.417Z,102045.13
2019-02-17T10:00:17.142Z,102037.31
2019-02-17T10:02:26.627Z,102041.27
2019-02-17T10:04:33.168Z,102038.20
2019-02-17T10:06:40.094Z,102041.25
2019-02-17T10:08:47.637Z,102035.14
2019-02-17T10:10:54.507Z,102043.86
2019-02-17T10:13:01.633Z,102042.54
2019-02-17T10:15:12.902Z,102038.98
2019-02-17T10:17:21.770Z,102045.06
2019-02-17T10:19:28.674Z,102043.28
2019-02-17T10:21:35.844Z,102037.48
2019-02-17T10:23:44.212Z,102038.31
2019-02-17T10:25:56.392Z,102035.17
2019-02-17T10:28:02.717Z,102032.44
2019-02-17T10:30:15.647Z,102038.53
2019-02-17T10:32:22.626Z,102028.44
2019-02-17T10:34:29.793Z,102024.89
2019-02-17T10:36:36.800Z,102027.44
2019-02-17T10:38:43.667Z,102022.08
2019-02-17T10:40:50.957Z,102014.59
2019-02-17T10:42:59.637Z,102015.11
2019-02-17T10:45:07.724Z,102011.53
2019-02-17T10:47:16.071Z,102010.06
2019-02-17T10:49:23.107Z,102007.77
2019-02-17T10:51:30.237Z,102002.85
2019-02-17T10:53:36.990Z,102003.33
2019-02-17T10:55:43.866Z,102007.27
2019-02-17T10:57:50.994Z,101999.28
2019-02-17T10:59:58.150Z,101995.27
2019-02-17T11:02:04.997Z,101997.02
2019-02-17T11:04:11.966Z,101996.11
2019-02-17T11:06:19.166Z,101993.41
2019-02-17T11:08:26.227Z,101985.00
2019-02-17T11:10:33.453Z,101981.46
2019-02-17T11:12:40.910Z,101982.30
2019-02-17T11:14:48.396Z,101986.91
2019-02-17T11:16:55.686Z,101987.42
2019-02-17T11:19:02.674Z,101986.67
2019-02-17T11:21:09.855Z,101981.06
2019-02-17T11:23:18.435Z,101985.08
2019-02-17T11:25:25.408Z,101987.75
2019-02-17T11:27:32.827Z,101985.59
2019-02-17T11:29:41.616Z,101976.73
2019-02-17T11:31:49.351Z,101977.08
2019-02-17T11:33:56.054Z,101973.58
2019-02-17T11:36:03.396Z,101970.91
2019-02-17T11:38:10.644Z,101975.60
2019-02-17T11:40:17.754Z,101979.41
2019-02-17T11:42:24.944Z,101978.01
2019-02-17T11:44:32.097Z,101979.31
2019-02-17T11:46:39.346Z,101977.87
2019-02-17T11:48:47.437Z,101973.28
2019-02-17T11:50:54.383Z,101973.02
2019-02-17T11:53:01.405Z,101968.16
2019-02-17T11:55:12.157Z,101967.33
2019-02-17T11:57:19.008Z,101969.08
2019-02-17T11:59:26.417Z,101963.86
2019-02-17T12:01:33.456Z,101963.42
2019-02-17T12:03:40.366Z,101962.80
2019-02-17T12:05:47.525Z,101957.85
2019-02-17T12:07:54.515Z,101964.28
2019-02-17T12:10:02.107Z,101956.49
2019-02-17T12:12:09.526Z,101962.19
2019-02-17T12:14:16.636Z,101957.33
2019-02-17T12:16:25.567Z,101961.66
2019-02-17T12:18:36.982Z,101955.42
2019-02-17T12:20:58.453Z,101962.97
2019-02-17T12:23:10.443Z,101960.78
2019-02-17T12:25:18.172Z,101960.77
2019-02-17T12:27:30.157Z,101960.30
2019-02-17T12:29:39.137Z,101960.83
2019-02-17T12:31:47.024Z,101957.77
2019-02-17T12:33:54.307Z,101961.66
2019-02-17T12:36:02.646Z,101961.66
2019-02-17T12:38:09.897Z,101960.39
2019-02-17T12:40:17.058Z,101954.55
2019-02-17T12:42:23.946Z,101953.72
2019-02-17T12:44:31.109Z,101957.80
2019-02-17T12:46:38.506Z,101959.61
2019-02-17T12:48:46.078Z,101963.59
2019-02-17T12:50:53.117Z,101962.45
2019-02-17T12:53:00.865Z,101966.89
2019-02-17T12:55:09.877Z,101959.35
2019-02-17T12:57:17.136Z,101960.53
2019-02-17T12:59:25.707Z,101969.24
2019-02-17T13:01:32.683Z,101964.47
2019-02-17T13:03:41.036Z,101958.87
2019-02-17T13:05:48.067Z,101961.89
2019-02-17T13:07:55.117Z,101951.86
2019-02-17T13:10:01.996Z,101945.16
2019-02-17T13:12:09.346Z,101944.14
2019-02-17T13:14:16.469Z,101943.25
2019-02-17T13:16:27.362Z,101947.69
2019-02-17T13:18:34.256Z,101946.95
2019-02-17T13:20:41.287Z,101950.07
2019-02-17T13:22:48.576Z,101946.95
2019-02-17T13:24:55.705Z,101946.95
2019-02-17T13:27:03.199Z,101947.87
2019-02-17T13:29:10.527Z,101946.07
2019-02-17T13:31:17.461Z,101946.42
2019-02-17T13:33:24.259Z,101950.37
2019-02-17T13:35:31.148Z,101953.91
2019-02-17T13:37:38.237Z,101947.78
2019-02-17T13:39:46.798Z,101957.28
2019-02-17T13:41:53.636Z,101959.52
2019-02-17T13:44:00.436Z,101963.31
2019-02-17T13:46:07.484Z,101955.97
2019-02-17T13:48:15.357Z,101958.20
2019-02-17T13:50:24.515Z,101949.05
2019-02-17T13:52:32.076Z,101954.02
2019-02-17T13:54:39.734Z,101959.27
2019-02-17T13:56:46.864Z,101954.80
2019-02-17T13:58:54.274Z,101952.20
2019-02-17T14:01:02.023Z,101960.58
2019-02-17T14:03:08.997Z,101954.58
2019-02-17T14:05:16.476Z,101959.88
2019-02-17T14:07:23.961Z,101960.84
2019-02-17T14:09:32.222Z,101954.27
2019-02-17T14:11:40.686Z,101962.64
2019-02-17T14:13:47.813Z,101960.02
2019-02-17T14:15:54.681Z,101955.20
2019-02-17T14:18:04.244Z,101958.26
2019-02-17T14:20:12.637Z,101954.84
2019-02-17T14:22:19.446Z,101954.45
2019-02-17T14:24:26.985Z,101951.42
2019-02-17T14:26:34.753Z,101954.09
2019-02-17T14:28:41.873Z,101943.66
2019-02-17T14:30:48.846Z,101948.91
2019-02-17T14:32:56.317Z,101940.20
2019-02-17T14:35:05.087Z,101937.97
2019-02-17T14:37:13.428Z,101934.51
2019-02-17T14:39:26.545Z,101934.55
2019-02-17T14:41:34.574Z,101937.66
2019-02-17T14:43:41.736Z,101935.11
2019-02-17T14:45:48.728Z,101933.00
2019-02-17T14:47:55.816Z,101940.00
2019-02-17T14:50:03.566Z,101937.45
2019-02-17T14:52:11.566Z,101936.61
2019-02-17T14:54:18.933Z,101936.67
2019-02-17T14:56:25.681Z,101938.02
2019-02-17T14:58:32.656Z,101932.84
2019-02-17T15:00:39.624Z,101937.69
2019-02-17T15:02:48.135Z,101937.28
2019-02-17T15:04:55.216Z,101926.86
2019-02-17T15:07:02.794Z,101933.41
2019-02-17T15:09:11.197Z,101931.70
2019-02-17T15:11:18.476Z,101935.23
2019-02-17T15:13:25.740Z,101929.14
2019-02-17T15:15:32.764Z,101926.58
2019-02-17T15:17:40.037Z,101930.54
2019-02-17T15:19:47.550Z,101928.41
2019-02-17T15:21:55.011Z,101930.16
2019-02-17T15:24:01.997Z,101927.13
2019-02-17T15:26:09.323Z,101935.86
2019-02-17T15:28:16.146Z,101935.48
2019-02-17T15:30:23.333Z,101928.93
2019-02-17T15:32:30.456Z,101936.36
2019-02-17T15:34:37.998Z,101932.89
2019-02-17T15:36:45.953Z,101938.16
2019-02-17T15:38:53.284Z,101930.32
2019-02-17T15:41:00.967Z,101938.65
2019-02-17T15:43:08.927Z,101935.62
2019-02-17T15:45:16.586Z,101934.73
2019-02-17T15:47:23.566Z,101936.08
2019-02-17T15:49:30.676Z,101929.96
2019-02-17T15:51:38.628Z,101935.66
2019-02-17T15:53:46.242Z,101935.69
2019-02-17T15:55:53.517Z,101931.76
2019-02-17T15:58:00.726Z,101935.27
2019-02-17T16:00:18.313Z,101934.40
2019-02-17T16:02:26.006Z,101937.47
2019-02-17T16:04:34.007Z,101937.94
2019-02-17T16:06:42.987Z,101953.69
2019-02-17T16:08:52.254Z,101950.23
2019-02-17T16:10:59.458Z,101948.50
2019-02-17T16:13:06.988Z,101953.75
2019-02-17T16:15:18.398Z,101952.47
2019-02-17T16:17:25.704Z,101949.84
2019-02-17T16:19:32.777Z,101948.55
2019-02-17T16:21:40.094Z,101952.05
2019-02-17T16:23:47.991Z,101953.78
2019-02-17T16:26:15.932Z,101953.38
2019-02-17T16:28:23.527Z,101954.69
2019-02-17T16:30:31.014Z,101951.66
2019-02-17T16:32:39.037Z,101952.95
2019-02-17T16:34:46.227Z,101955.14
2019-02-17T16:36:53.509Z,101954.72
2019-02-17T16:39:00.878Z,101948.63
2019-02-17T16:41:09.684Z,101953.87
2019-02-17T16:43:17.070Z,101957.34
2019-02-17T16:45:24.236Z,101949.07
2019-02-17T16:47:31.947Z,101952.13
2019-02-17T16:49:39.595Z,101950.39
2019-02-17T16:51:47.177Z,101949.09
2019-02-17T16:53:54.436Z,101959.56
2019-02-17T16:56:01.707Z,101956.07
2019-02-17T16:58:09.536Z,101957.81
2019-02-17T17:00:22.326Z,101957.39
2019-02-17T17:02:30.376Z,101957.81
2019-02-17T17:04:47.880Z,101958.69
2019-02-17T17:06:47.988Z,101960.44
2019-02-17T17:08:55.266Z,101955.64
2019-02-17T17:11:02.626Z,101950.39
2019-02-17T17:13:11.344Z,101957.41
2019-02-17T17:15:19.277Z,101953.47
2019-02-17T17:17:26.596Z,101949.97
2019-02-17T17:19:33.806Z,101948.68
2019-02-17T17:21:43.014Z,101946.52
2019-02-17T17:23:50.176Z,101948.72
2019-02-17T17:25:57.775Z,101944.80
2019-02-17T17:28:05.124Z,101952.22
2019-02-17T17:30:20.206Z,101953.57
2019-02-17T17:32:29.517Z,101956.61
2019-02-17T17:34:38.397Z,101956.63
2019-02-17T17:36:46.417Z,101951.80
2019-02-17T17:38:53.607Z,101958.78
2019-02-17T17:41:01.057Z,101953.58
2019-02-17T17:43:09.737Z,101951.00
2019-02-17T17:45:19.963Z,101944.92
2019-02-17T17:47:27.257Z,101941.42
2019-02-17T17:49:34.447Z,101945.81
2019-02-17T17:51:42.106Z,101947.12
2019-02-17T17:53:49.406Z,101950.19
2019-02-17T17:55:56.517Z,101947.60
2019-02-17T17:58:04.037Z,101951.96
2019-02-17T18:00:21.207Z,101955.87
2019-02-17T18:02:28.874Z,101956.30
2019-02-17T18:04:36.173Z,101947.59
2019-02-17T18:06:43.643Z,101953.26
2019-02-17T18:08:51.193Z,101952.37
2019-02-17T18:10:58.508Z,101957.61
2019-02-17T18:13:05.917Z,101961.50
2019-02-17T18:15:19.155Z,101956.27
2019-02-17T18:17:26.682Z,101955.39
2019-02-17T18:19:33.797Z,101962.37
2019-02-17T18:21:41.489Z,101960.18
2019-02-17T18:23:48.789Z,101960.17
2019-02-17T18:25:56.056Z,101958.00
2019-02-17T18:28:03.864Z,101958.41
2019-02-17T18:30:21.520Z,101956.65
2019-02-17T18:32:30.314Z,101959.69
2019-02-17T18:34:37.515Z,101956.63
2019-02-17T18:36:46.207Z,101957.48
2019-02-17T18:38:54.816Z,101954.00
2019-02-17T18:41:02.264Z,101956.59
2019-02-17T18:43:09.597Z,101948.75
2019-02-17T18:45:17.770Z,101952.19
2019-02-17T18:47:25.951Z,101956.09
2019-02-17T18:49:33.464Z,101955.20
2019-02-17T18:51:41.800Z,101955.16
2019-02-17T18:53:50.944Z,101962.52
2019-02-17T18:55:58.185Z,101963.80
2019-02-17T18:58:05.995Z,101961.61
2019-02-17T19:00:26.052Z,101960.73
2019-02-17T19:02:33.220Z,101961.12
2019-02-17T19:04:40.920Z,101963.28
2019-02-17T19:06:48.673Z,101965.00
2019-02-17T19:08:56.767Z,101972.81
2019-02-17T19:11:04.290Z,101974.08
2019-02-17T19:13:11.963Z,101974.94
2019-02-17T19:15:23.469Z,101975.77
2019-02-17T19:17:51.201Z,101973.09
2019-02-17T19:19:58.519Z,101979.14
2019-02-17T19:22:05.789Z,101976.09
2019-02-17T19:24:13.118Z,101976.05
2019-02-17T19:26:20.360Z,101975.56
2019-02-17T19:28:27.628Z,101975.93
2019-02-17T19:30:35.021Z,101978.46
2019-02-17T19:32:42.111Z,101976.66
2019-02-17T19:34:49.369Z,101977.04
2019-02-17T19:36:57.100Z,101976.53
2019-02-17T19:39:06.412Z,101974.33
2019-02-17T19:41:14.280Z,101972.97
2019-02-17T19:43:22.042Z,101975.94
2019-02-17T19:45:29.555Z,101972.89
2019-02-17T19:47:37.202Z,101976.31
2019-02-17T19:49:44.753Z,101977.59
2019-02-17T19:51:52.316Z,101980.19
2019-02-17T19:53:59.720Z,101975.38
2019-02-17T19:56:07.533Z,101977.98
2019-02-17T19:58:14.942Z,101982.73
2019-02-17T20:00:25.173Z,101980.09
2019-02-17T20:02:33.974Z,101980.52
2019-02-17T20:04:43.194Z,101980.03
2019-02-17T20:06:50.754Z,101978.28
2019-02-17T20:08:58.252Z,101975.64
2019-02-17T20:11:05.760Z,101976.91
2019-02-17T20:13:13.534Z,101971.22
2019-02-17T20:15:22.353Z,101975.06
2019-02-17T20:17:30.361Z,101970.63
2019-02-17T20:19:37.772Z,101979.25
2019-02-17T20:21:45.156Z,101984.42
2019-02-17T20:23:52.853Z,101986.98
2019-02-17T20:26:00.112Z,101993.03
2019-02-17T20:28:07.624Z,101987.33
2019-02-17T20:30:16.567Z,101981.22
2019-02-17T20:32:23.881Z,101979.91
2019-02-17T20:34:31.370Z,101971.58
2019-02-17T20:36:38.540Z,101973.69
2019-02-17T20:38:45.848Z,101974.91
2019-02-17T20:40:55.053Z,101977.89
2019-02-17T20:43:02.558Z,101978.73
2019-02-17T20:45:12.344Z,101979.16
2019-02-17T20:47:19.814Z,101981.33
2019-02-17T20:49:27.189Z,101977.86
2019-02-17T20:51:34.713Z,101982.14
2019-02-17T20:53:43.302Z,101991.27
2019-02-17T20:55:50.741Z,101985.16
2019-02-17T20:57:57.933Z,101987.25
2019-02-17T21:00:06.710Z,101989.39
2019-02-17T21:02:13.854Z,101994.17
2019-02-17T21:04:21.622Z,101990.23
2019-02-17T21:06:29.329Z,101987.62
2019-02-17T21:08:36.492Z,101988.94
2019-02-17T21:10:43.992Z,101991.11
2019-02-17T21:12:51.513Z,101995.05
2019-02-17T21:14:59.182Z,101993.83
2019-02-17T21:17:06.772Z,101996.47
2019-02-17T21:19:14.052Z,102000.41
2019-02-17T21:21:21.374Z,102000.41
2019-02-17T21:23:28.856Z,101997.43
2019-02-17T21:25:36.451Z,101993.99
2019-02-17T21:27:43.923Z,101990.59
2019-02-17T21:29:51.087Z,101986.69
2019-02-17T21:31:58.259Z,101985.81
2019-02-17T21:34:05.326Z,101983.67
2019-02-17T21:36:22.545Z,101980.64
2019-02-17T21:38:23.399Z,101974.98
2019-02-17T21:40:30.876Z,101977.12
2019-02-17T21:42:37.961Z,101984.93
2019-02-17T21:44:44.842Z,101979.27
2019-02-17T21:46:52.222Z,101982.79
2019-02-17T21:48:59.311Z,101985.35
2019-02-17T21:51:06.786Z,101988.83
2019-02-17T21:53:20.585Z,101990.59
2019-02-17T21:55:22.875Z,101988.91
2019-02-17T21:57:30.164Z,101975.06
2019-02-17T21:59:37.181Z,101981.14
2019-02-17T22:01:44.282Z,101987.64
2019-02-17T22:03:51.651Z,101978.51
2019-02-17T22:05:58.652Z,101985.00
2019-02-17T22:08:05.752Z,101983.70
2019-02-17T22:10:20.757Z,101979.34
2019-02-17T22:12:27.629Z,101981.45
2019-02-17T22:14:35.871Z,101982.70
2019-02-17T22:16:43.630Z,101980.88
2019-02-17T22:18:50.707Z,101975.22
2019-02-17T22:20:57.300Z,101967.38
2019-02-17T22:23:04.130Z,101972.50
2019-02-17T22:25:11.947Z,101970.70
2019-02-17T22:27:18.778Z,101969.73
2019-02-17T22:29:25.628Z,101971.41
2019-02-17T22:31:32.478Z,101974.80
2019-02-17T22:33:39.222Z,101965.63
2019-02-17T22:35:46.218Z,101965.08
2019-02-17T22:37:53.435Z,101964.58
2019-02-17T22:40:00.838Z,101972.73
2019-02-17T22:42:08.956Z,101973.07
2019-02-17T22:44:16.328Z,101967.32
2019-02-17T22:46:23.136Z,101968.98
2019-02-17T22:48:30.038Z,101963.70
2019-02-17T22:50:37.037Z,101970.14
2019-02-17T22:52:46.544Z,101960.08
2019-02-17T22:54:53.411Z,101957.86
2019-02-17T22:57:00.609Z,101966.47
2019-02-17T22:59:07.159Z,101963.81
2019-02-17T23:01:16.247Z,101957.70
2019-02-17T23:03:23.367Z,101954.64
2019-02-17T23:05:30.318Z,101955.47
2019-02-17T23:07:37.633Z,101955.01
2019-02-17T23:09:44.593Z,101958.02
2019-02-17T23:11:51.992Z,101961.86
2019-02-17T23:13:59.378Z,101960.56
2019-02-17T23:16:06.428Z,101961.35
2019-02-17T23:18:14.584Z,101958.69
2019-02-17T23:20:21.518Z,101958.17
2019-02-17T23:22:28.977Z,101958.50
2019-02-17T23:24:37.058Z,101959.31
2019-02-17T23:26:44.216Z,101956.22
2019-02-17T23:28:51.092Z,101960.92
2019-02-17T23:30:58.660Z,101960.92
2019-02-17T23:33:06.397Z,101965.28
2019-02-17T23:35:13.900Z,101956.56
2019-02-17T23:37:20.789Z,101957.80
2019-02-17T23:39:27.839Z,101959.05
2019-02-17T23:41:35.507Z,101956.35
2019-02-17T23:43:42.605Z,101958.47
2019-02-17T23:45:50.851Z,101961.47
2019-02-17T23:47:59.917Z,101965.36
2019-02-17T23:50:09.227Z,101965.72
2019-02-17T23:52:16.524Z,101960.89
2019-02-17T23:54:23.700Z,101959.55
2019-02-17T23:56:32.141Z,101962.48
2019-02-17T23:58:39.200Z,101964.56
